createdAt,value
2022-11-22T00:03:09.818Z,29.55
2022-11-22T00:08:11.391Z,26.05
2022-11-22T00:13:12.876Z,25.25
2022-11-22T00:18:14.326Z,26.23
2022-11-22T00:23:16.582Z,21.58
2022-11-22T00:28:18.113Z,27.60
2022-11-22T00:33:19.617Z,25.00
2022-11-22T00:38:21.096Z,27.88
2022-11-22T00:43:23.714Z,21.15
2022-11-22T00:48:25.237Z,25.73
2022-11-22T00:53:26.803Z,28.02
2022-11-22T00:58:28.309Z,24.42
2022-11-22T01:03:29.934Z,27.25
2022-11-22T01:08:31.419Z,25.65
2022-11-22T01:13:33.021Z,23.00
2022-11-22T01:18:34.867Z,20.27
2022-11-22T01:23:36.924Z,25.17
2022-11-22T01:28:38.430Z,19.50
2022-11-22T01:33:39.898Z,24.33
2022-11-22T01:38:41.343Z,30.45
2022-11-22T01:43:42.868Z,26.40
2022-11-22T01:49:03.235Z,22.83
2022-11-22T01:54:11.684Z,27.00
2022-11-22T01:59:17.047Z,28.23
2022-11-22T02:04:20.507Z,29.55
2022-11-22T02:09:23.413Z,30.00
2022-11-22T02:14:27.419Z,27.75
2022-11-22T02:19:51.191Z,28.23
2022-11-22T02:25:16.068Z,30.50
2022-11-22T02:30:18.398Z,28.27
2022-11-22T02:35:23.131Z,29.98
2022-11-22T02:40:26.719Z,31.33
2022-11-22T02:45:28.321Z,36.65
2022-11-22T02:50:29.823Z,33.30
2022-11-22T02:55:31.362Z,32.30
2022-11-22T03:00:34.665Z,23.42
2022-11-22T03:05:36.118Z,28.63
2022-11-22T03:10:37.735Z,27.75
2022-11-22T03:15:39.264Z,29.38
2022-11-22T03:20:40.750Z,26.92
2022-11-22T03:25:42.513Z,25.42
2022-11-22T03:30:44.014Z,25.48
2022-11-22T03:35:45.622Z,31.15
2022-11-22T03:40:47.096Z,27.10
2022-11-22T03:45:48.579Z,18.98
2022-11-22T03:50:50.156Z,27.70
2022-11-22T03:55:51.632Z,20.73
2022-11-22T04:00:53.178Z,24.70
2022-11-22T04:05:55.062Z,26.90
2022-11-22T04:10:56.504Z,22.95
2022-11-22T04:15:57.945Z,21.70
2022-11-22T04:21:18.094Z,25.13
2022-11-22T04:26:19.569Z,22.40
2022-11-22T04:31:39.500Z,19.20
2022-11-22T04:36:40.984Z,21.13
2022-11-22T04:41:42.852Z,23.80
2022-11-22T04:46:44.332Z,31.65
2022-11-22T04:52:04.342Z,18.63
2022-11-22T04:57:05.792Z,26.48
2022-11-22T05:02:07.337Z,17.90
2022-11-22T05:07:08.802Z,25.73
2022-11-22T05:12:10.264Z,30.98
2022-11-22T05:17:13.667Z,18.20
2022-11-22T05:22:15.361Z,18.77
2022-11-22T05:27:16.892Z,22.15
2022-11-22T05:32:18.385Z,25.83
2022-11-22T05:37:19.842Z,22.08
2022-11-22T05:42:21.505Z,21.33
2022-11-22T05:47:23.020Z,22.05
2022-11-22T05:52:24.520Z,21.63
2022-11-22T05:57:26.998Z,19.95
2022-11-22T06:02:31.218Z,21.17
2022-11-22T06:07:32.841Z,20.80
2022-11-22T06:12:34.381Z,25.48
2022-11-22T06:17:35.888Z,20.67
2022-11-22T06:22:37.438Z,24.77
2022-11-22T06:27:38.927Z,18.95
2022-11-22T06:32:40.430Z,20.58
2022-11-22T06:37:41.938Z,19.27
2022-11-22T06:42:43.453Z,22.35
2022-11-22T06:47:44.944Z,18.25
2022-11-22T06:52:52.044Z,20.52
2022-11-22T06:57:53.509Z,22.80
2022-11-22T07:02:54.981Z,21.88
2022-11-22T07:08:02.841Z,20.35
2022-11-22T07:13:07.210Z,18.98
2022-11-22T07:18:08.679Z,18.77
2022-11-22T07:23:12.500Z,19.92
2022-11-22T07:28:15.447Z,20.38
2022-11-22T07:33:17.018Z,19.45
2022-11-22T07:38:18.593Z,16.45
2022-11-22T07:43:20.090Z,17.05
2022-11-22T07:48:21.549Z,22.10
2022-11-22T07:53:23.250Z,16.55
2022-11-22T07:58:24.737Z,18.27
2022-11-22T08:03:29.183Z,17.35
2022-11-22T08:08:31.321Z,22.27
2022-11-22T08:13:33.841Z,16.10
2022-11-22T08:18:36.535Z,17.67
2022-11-22T08:23:39.598Z,14.07
2022-11-22T08:28:42.740Z,16.83
2022-11-22T08:33:44.320Z,17.35
2022-11-22T08:38:45.990Z,15.25
2022-11-22T08:43:50.653Z,21.25
2022-11-22T08:48:54.095Z,16.20
2022-11-22T08:53:55.536Z,14.07
2022-11-22T08:58:57.049Z,14.50
2022-11-22T09:03:59.032Z,14.52
2022-11-22T09:09:29.924Z,13.93
2022-11-22T09:14:22.002Z,13.45
2022-11-22T09:19:23.538Z,15.13
2022-11-22T09:24:24.991Z,11.00
2022-11-22T09:29:28.155Z,14.82
2022-11-22T09:34:30.031Z,13.05
2022-11-22T09:39:31.723Z,13.35
2022-11-22T09:45:01.888Z,11.73
2022-11-22T09:50:33.844Z,11.25
2022-11-22T09:55:45.378Z,10.15
2022-11-22T10:00:51.991Z,14.10
2022-11-22T10:05:57.940Z,12.10
2022-11-22T10:11:01.371Z,14.27
2022-11-22T10:16:14.845Z,8.95
2022-11-22T10:21:16.574Z,12.38
2022-11-22T10:26:23.979Z,9.93
2022-11-22T10:31:43.237Z,9.68
2022-11-22T10:36:57.049Z,7.90
2022-11-22T10:42:01.430Z,9.73
2022-11-22T10:47:09.025Z,13.25
2022-11-22T10:52:33.386Z,4.72
2022-11-22T10:57:34.872Z,15.00
2022-11-22T11:02:54.834Z,9.52
2022-11-22T11:08:04.197Z,11.27
2022-11-22T11:13:23.574Z,11.30
2022-11-22T11:18:30.865Z,13.27
2022-11-22T11:23:32.573Z,9.05
2022-11-22T11:28:34.125Z,13.70
2022-11-22T11:33:38.413Z,10.35
2022-11-22T11:38:42.907Z,12.82
2022-11-22T11:43:44.559Z,14.80
2022-11-22T11:48:46.644Z,9.23
2022-11-22T11:54:15.722Z,13.00
2022-11-22T11:59:22.299Z,12.48
2022-11-22T12:04:27.365Z,9.68
2022-11-22T12:09:32.227Z,8.38
2022-11-22T12:15:03.290Z,6.25
2022-11-22T12:20:08.380Z,9.40
2022-11-22T12:25:32.977Z,8.35
2022-11-22T12:30:36.271Z,10.35
2022-11-22T12:35:43.763Z,8.70
2022-11-22T12:40:50.023Z,15.25
2022-11-22T12:46:00.182Z,13.85
2022-11-22T12:51:17.018Z,10.00
2022-11-22T12:56:33.541Z,9.52
2022-11-22T13:01:41.545Z,11.82
2022-11-22T13:06:58.912Z,10.77
2022-11-22T13:12:08.673Z,14.17
2022-11-22T13:17:12.242Z,8.23
2022-11-22T13:22:41.304Z,10.73
2022-11-22T13:27:50.833Z,10.75
2022-11-22T13:32:55.440Z,9.95
2022-11-22T13:38:00.747Z,6.18
2022-11-22T13:43:49.180Z,6.63
2022-11-22T13:48:53.613Z,7.97
2022-11-22T13:54:34.060Z,5.75
2022-11-22T13:59:35.842Z,5.80
2022-11-22T14:04:42.602Z,5.03
2022-11-22T14:09:54.079Z,6.55
2022-11-22T14:15:27.104Z,7.18
2022-11-22T14:20:39.520Z,10.18
2022-11-22T14:25:44.097Z,9.38
2022-11-22T14:30:49.993Z,15.75
2022-11-22T14:36:06.633Z,8.15
2022-11-22T14:41:26.659Z,8.70
2022-11-22T14:46:52.703Z,6.20
2022-11-22T14:51:56.257Z,6.88
2022-11-22T14:57:04.706Z,6.05
2022-11-22T15:02:25.363Z,8.82
2022-11-22T15:09:16.117Z,6.18
2022-11-22T15:13:34.472Z,6.70
2022-11-22T16:02:19.331Z,4.32
2022-11-22T16:07:37.722Z,3.08
2022-11-22T16:12:42.293Z,5.63
2022-11-22T16:17:55.016Z,5.63
2022-11-22T16:23:09.781Z,4.82
2022-11-22T16:28:32.759Z,5.40
2022-11-22T16:33:35.133Z,7.38
2022-11-22T16:38:36.791Z,4.30
2022-11-22T16:43:38.474Z,3.42
2022-11-22T16:48:40.600Z,5.25
2022-11-22T16:53:44.724Z,3.33
2022-11-22T16:58:48.469Z,6.68
2022-11-22T17:03:53.015Z,5.90
2022-11-22T17:08:56.640Z,4.35
2022-11-22T17:14:00.067Z,6.78
2022-11-22T17:19:01.641Z,4.97
2022-11-22T17:24:24.809Z,4.40
2022-11-22T17:29:49.169Z,6.57
2022-11-22T17:34:48.098Z,8.18
2022-11-22T17:39:52.736Z,6.18
2022-11-22T17:44:54.505Z,5.97
2022-11-22T17:49:56.628Z,12.65
2022-11-22T17:55:03.546Z,11.35
2022-11-22T18:00:08.276Z,13.55
2022-11-22T18:05:09.986Z,11.95
2022-11-22T18:10:11.977Z,7.70
2022-11-22T18:15:13.937Z,7.25
2022-11-22T18:20:15.448Z,6.95
2022-11-22T18:25:16.978Z,8.73
2022-11-22T18:30:18.570Z,7.38
2022-11-22T18:35:20.036Z,11.25
2022-11-22T18:40:21.563Z,8.68
2022-11-22T18:45:25.461Z,9.65
2022-11-22T18:50:26.970Z,9.75
2022-11-22T18:55:28.490Z,10.27
2022-11-22T19:00:30.030Z,9.15
2022-11-22T19:05:31.592Z,10.68
2022-11-22T19:10:33.059Z,13.18
2022-11-22T19:15:34.725Z,15.02
2022-11-22T19:20:54.554Z,13.38
2022-11-22T19:25:57.075Z,24.55
2022-11-22T19:31:09.148Z,14.45
2022-11-22T19:36:16.027Z,14.63
2022-11-22T19:41:22.744Z,12.87
2022-11-22T19:46:24.980Z,14.63
2022-11-22T19:51:28.482Z,13.60
2022-11-22T19:56:36.345Z,17.00
2022-11-22T20:01:39.616Z,14.75
2022-11-22T20:06:43.162Z,12.23
2022-11-22T20:11:47.504Z,13.43
2022-11-22T20:16:48.948Z,15.73
2022-11-22T20:21:50.544Z,13.98
2022-11-22T20:26:52.074Z,13.10
2022-11-22T20:31:53.641Z,13.02
2022-11-22T20:36:55.505Z,17.10
2022-11-22T20:42:18.506Z,16.58
2022-11-22T20:47:19.011Z,11.68
2022-11-22T20:52:20.507Z,12.70
2022-11-22T20:57:22.039Z,10.05
2022-11-22T21:02:23.547Z,15.60
2022-11-22T21:07:25.793Z,15.63
2022-11-22T21:12:27.532Z,15.27
2022-11-22T21:17:45.559Z,13.15
2022-11-22T21:22:54.219Z,15.30
2022-11-22T21:27:55.718Z,12.82
2022-11-22T21:32:57.254Z,11.70
2022-11-22T21:37:58.716Z,15.48
2022-11-22T21:43:00.166Z,15.48
2022-11-22T21:48:03.361Z,16.30
2022-11-22T21:53:05.302Z,20.42
2022-11-22T21:58:06.866Z,16.75
2022-11-22T22:03:10.153Z,16.98
2022-11-22T22:08:11.612Z,15.35
2022-11-22T22:13:13.057Z,20.90
2022-11-22T22:18:14.976Z,18.35
2022-11-22T22:23:16.520Z,19.40
2022-11-22T22:28:17.956Z,18.00
2022-11-22T22:33:19.485Z,22.77
2022-11-22T22:38:20.943Z,18.40
2022-11-22T22:43:23.473Z,20.88
2022-11-22T22:48:24.931Z,20.95
2022-11-22T22:53:26.417Z,24.10
2022-11-22T22:58:27.996Z,21.10
2022-11-22T23:03:29.546Z,22.13
2022-11-22T23:08:31.045Z,27.08
2022-11-22T23:13:34.529Z,22.77
2022-11-22T23:18:38.489Z,22.00
2022-11-22T23:23:39.985Z,24.50
2022-11-22T23:28:41.468Z,24.95
2022-11-22T23:33:44.025Z,25.63
2022-11-22T23:38:46.436Z,26.75
2022-11-22T23:43:52.529Z,29.60
2022-11-22T23:48:59.197Z,25.55
2022-11-22T23:54:03.441Z,25.50
2022-11-22T23:59:05.682Z,24.20
